»·PEaware :: N323DE KLAS-KLAX

N323DE :: KLAS-KLAX

FLIGHT INFORMATION

Flight Status: Arrived
Operator: Privately registered:
United States
More flights under this callsign
Pilot: John H. (10732)
Aircraft: Unknown
(LEG2)
More flights by this aircraft type
Origin: KLAS McCarran Intl
United States
Destination: KLAX Los Angeles Intl
United States
More flights between these airports :: More routes between these airports
Route: +DAG PMD KIMMO3
File this flight plan on PilotEdge
Remarks:
Altitude:
(Current/Filed)
18,000ft
Speed:
(Current/Filed)
250kts
Departed: 10-May-19 07:16 AM
Arrived: 10-May-19 08:18 AM
Distance/Time
Traveled:
205nm/1:02
Distance/Time
To Go:
Arrived

Flight Plot

Page will automatically refresh every two minutes.

Flight plan parsing failed; only flown route is shown


Map Options




Map Legend


Flown Route
Filed Route
Departure Airport
Arrival Airport
Navaid (VOR, NDB)
Fix

Horizontal Profiles

Position Reports

Time Latitude Longitude Heading Altitude Ground
Speed
10-May-19 07:00 36.080889 -115.170911 269 2118ft 0kts
10-May-19 07:01 36.080889 -115.170911 269 2118ft 0kts
10-May-19 07:02 36.080889 -115.170911 269 2118ft 0kts
10-May-19 07:03 36.080889 -115.170911 269 2118ft 0kts
10-May-19 07:04 36.080889 -115.170911 269 2118ft 0kts
10-May-19 07:05 36.080889 -115.170911 269 2118ft 0kts
10-May-19 07:06 36.080889 -115.170911 269 2118ft 0kts
10-May-19 07:07 36.080889 -115.170911 269 2118ft 0kts
10-May-19 07:08 36.080889 -115.170911 269 2118ft 0kts
10-May-19 07:09 36.080889 -115.170911 269 2118ft 0kts
10-May-19 07:10 36.080889 -115.170911 269 2118ft 0kts
10-May-19 07:11 36.080889 -115.170911 269 2118ft 0kts
10-May-19 07:12 36.079467 -115.170246 205 2118ft 18kts
10-May-19 07:13 36.076968 -115.171035 188 2118ft 4kts
10-May-19 07:14 36.075853 -115.170804 141 2118ft 10kts
10-May-19 07:15 36.094538 -115.163713 347 2659ft 160kts
10-May-19 07:16 36.119143 -115.207076 301 4636ft 151kts
10-May-19 07:17 36.105191 -115.238953 182 6590ft 138kts
10-May-19 07:18 36.064248 -115.244385 182 8659ft 159kts
10-May-19 07:19 36.019729 -115.249567 181 10663ft 161kts
10-May-19 07:20 35.975096 -115.256317 181 12662ft 160kts
10-May-19 07:21 35.931051 -115.264367 181 14668ft 158kts
10-May-19 07:22 35.886334 -115.271949 182 16014ft 187kts
10-May-19 07:23 35.827283 -115.286271 192 16001ft 238kts
10-May-19 07:24 35.761260 -115.309098 192 15996ft 251kts
10-May-19 07:25 35.693328 -115.332470 192 15996ft 255kts
10-May-19 07:26 35.628584 -115.365852 229 15985ft 267kts
10-May-19 07:27 35.590382 -115.445097 232 15980ft 270kts
10-May-19 07:28 35.548550 -115.522996 231 15977ft 274kts
10-May-19 07:29 35.506058 -115.600810 231 15984ft 275kts
10-May-19 07:30 35.463138 -115.679015 231 15968ft 280kts
10-May-19 07:31 35.419969 -115.757515 231 15964ft 272kts
10-May-19 07:32 35.377693 -115.834130 232 15972ft 272kts
10-May-19 07:33 35.335141 -115.911100 232 15970ft 273kts
10-May-19 07:34 35.292186 -115.988638 232 15963ft 274kts
10-May-19 07:35 35.249180 -116.066084 233 15966ft 276kts
10-May-19 07:36 35.205911 -116.143847 233 15967ft 278kts
10-May-19 07:37 35.162088 -116.222418 233 15967ft 283kts
10-May-19 07:38 35.117210 -116.302712 233 15967ft 287kts
10-May-19 07:39 35.072095 -116.383249 233 15967ft 289kts
10-May-19 07:40 35.026616 -116.464249 233 15967ft 289kts
10-May-19 07:41 34.985858 -116.536676 233 15968ft 289kts
10-May-19 07:42 34.952538 -116.625555 254 15967ft 292kts
10-May-19 07:43 34.931512 -116.721349 253 15966ft 293kts
10-May-19 07:44 34.910517 -116.817509 253 15968ft 294kts
10-May-19 07:45 34.889469 -116.913764 253 15968ft 294kts
10-May-19 07:46 34.868412 -117.009704 253 15956ft 294kts
10-May-19 07:47 34.847101 -117.106420 253 15950ft 296kts
10-May-19 07:48 34.825740 -117.202977 253 15950ft 295kts
10-May-19 07:49 34.804396 -117.299053 252 15949ft 293kts
10-May-19 07:50 34.783117 -117.394441 252 15949ft 291kts
10-May-19 07:51 34.761937 -117.488996 253 15949ft 287kts
10-May-19 07:52 34.741029 -117.581980 253 15949ft 284kts
10-May-19 07:53 34.720104 -117.674642 254 15951ft 283kts
10-May-19 07:54 34.699137 -117.767193 255 15749ft 289kts
10-May-19 07:55 34.676695 -117.865935 255 14287ft 312kts
10-May-19 07:56 34.653954 -117.965453 255 13957ft 296kts
10-May-19 07:57 34.630927 -118.060437 246 13953ft 292kts
10-May-19 07:58 34.583029 -118.140408 234 13625ft 300kts
10-May-19 07:59 34.537343 -118.214457 233 11439ft 212kts
10-May-19 08:00 34.506171 -118.264397 233 8772ft 176kts
10-May-19 08:01 34.473347 -118.316677 233 8005ft 222kts
10-May-19 08:02 34.431264 -118.382717 226 7994ft 263kts
10-May-19 08:03 34.363437 -118.389108 148 8002ft 264kts
10-May-19 08:04 34.297126 -118.350879 154 6889ft 266kts
10-May-19 08:05 34.231181 -118.312990 154 6003ft 260kts
10-May-19 08:06 34.166193 -118.275348 154 5940ft 260kts
10-May-19 08:07 34.101278 -118.235500 152 5319ft 252kts
10-May-19 08:08 34.042069 -118.197460 152 4700ft 232kts
10-May-19 08:09 33.986549 -118.161746 152 3243ft 213kts
10-May-19 08:10 33.950953 -118.159369 279 2008ft 125kts
10-May-19 08:11 33.957457 -118.196225 239 2032ft 110kts
10-May-19 08:12 33.952388 -118.233315 261 1989ft 112kts
10-May-19 08:13 33.948729 -118.270736 261 2006ft 112kts
10-May-19 08:14 33.944762 -118.310023 261 1387ft 118kts
10-May-19 08:15 33.940834 -118.348721 261 725ft 113kts
10-May-19 08:16 33.937224 -118.383247 261 154ft 82kts
10-May-19 08:17 33.935534 -118.390663 148 129ft 13kts
10-May-19 08:18 33.934369 -118.388427 83 129ft 0kts

Navigation Log

Ident Type
Flight plan parsing failed, navigation log unavailable